Weather observations for the past three days for
Presque Isle
Imperial (Metric)
Date Time (edt) Wind (mph) Vis. (mi.) Weather Sky Cond. Temperature (ºF) Relative Humidity Wind Chill (°F) Heat Index (°F) Pressure Precipitation (in)
Air Dwpt 6 hour altimeter (in) sea level (mb) 1 hr 3 hr 6 hr
Max. Min.
03 06:56 SE 6 10.00 Light Rain OVC011 55.9 54 93% 30.06 1020.4 0.05
03 05:56 S 9 10.00 Mostly Cloudy FEW013 BKN060 BKN070 55.9 52 87% 30.06 1020.4
03 04:56 S 7 10.00 Overcast OVC060 55.9 51.1 84% 30.07 1020.7
03 03:56 SE 9 10.00 Mostly Cloudy BKN060 55.9 50 81% 30.08 1020.9
03 02:56 S 9 10.00 Mostly Cloudy BKN060 55.9 50 81% 30.09 1021.5
03 01:56 S 7 10.00 Fair CLR 55.9 51.1 63 55 84% 30.11 1022.1
03 00:56 Vrbl 6 10.00 Partly Cloudy SCT055 55.9 52 87% 30.13 1022.7
02 23:56 S 6 10.00 Fair CLR 57 52 83% 30.12 1022.5
02 22:56 SE 5 10.00 Fair CLR 57.9 51.1 78% 30.14 1023.1
02 21:56 S 8 10.00 Fair CLR 60.1 51.1 72% 30.14 1023.3
02 20:56 SE 7 10.00 Fair CLR 61 52 72% 30.14 1023.2
02 19:56 SE 5 10.00 Fair CLR 63 51.1 73 63 65% 30.14 1023.1
02 18:56 SE 6 10.00 Fair CLR 64.9 51.1 61% 30.15 1023.4
02 17:56 S 6 10.00 Fair CLR 68 50 53% 30.16 1023.8
02 16:56 S 9 10.00 Partly Cloudy SCT070 71.1 48 44% 30.17 1024.0
02 15:56 S 8 10.00 Fair CLR 72 48.9 44% 30.18 1024.6
02 14:56 SE 12 10.00 Fair CLR 72 48.9 44% 30.19 1025.0
02 13:56 S 8 10.00 Fair CLR 72 46.9 72 54 41% 30.21 1025.6
02 12:56 S 10 10.00 Fair CLR 70 52 53% 30.22 1026.0
02 11:56 S 8 10.00 Fair CLR 69.1 54 59% 30.23 1026.3
02 10:56 SE 8 10.00 Fair CLR 64.9 52 63% 30.24 1026.6
02 09:56 S 7 10.00 Fair CLR 63 55 76% 30.25 1026.8
02 08:56 S 9 10.00 A Few Clouds FEW009 57.9 55 90% 30.26 1027.1
02 07:56 Calm 10.00 A Few Clouds FEW005 54 52 54 45 93% 30.26 1027.2
02 06:56 NE 5 10.00 Partly Cloudy SCT005 51.1 50 96% 30.26 1027.4
02 05:56 E 5 10.00 A Few Clouds FEW065 46.9 46.9 100% 45 30.26 1027.2
02 04:56 NE 3 10.00 Fair CLR 48 48 100% 30.24 1026.7
02 03:56 Calm 10.00 Fair CLR 50 48.9 96% 30.23 1026.4
02 02:56 Calm 10.00 Fair CLR 48.9 46.9 93% 30.22 1025.9
02 01:56 Calm 10.00 Fair CLR 50 48 57.9 50 93% 30.21 1025.7
02 00:56 Calm 10.00 Fair CLR 54 48.9 83% 30.2 1025.2
01 23:56 E 3 10.00 Fair CLR 55 50 83% 30.19 1024.8
01 22:56 N 3 10.00 Fair CLR 55.9 50 81% 30.18 1024.6
01 21:56 Calm 10.00 Fair CLR 54 50 87% 30.17 1024.0
01 20:56 Calm 10.00 Mostly Cloudy BKN070 54 51.1 90% 30.16 1023.8
01 19:56 Calm 10.00 Fair CLR 57 50 73.9 57 78% 30.14 1023.4
01 18:56 Calm 10.00 Fair CLR 63 51.1 65% 30.13 1022.9
01 17:56 NE 3 10.00 Fair CLR 72 43 35% 30.12 1022.2
01 16:56 NE 8 10.00 Fair CLR 73 44.1 35% 30.11 1022.0
01 15:56 NE 8 10.00 Mostly Cloudy BKN065 71.1 46 41% 30.11 1022.1
01 14:56 Vrbl 3 10.00 Fair CLR 72 45 38% 30.12 1022.2
01 13:56 NE 8 10.00 Fair CLR 71.1 46 72 51.1 41% 30.11 1022.2
01 12:56 NE 9 10.00 Fair CLR 71.1 46.9 42% 30.11 1022.1
01 11:56 N 6 10.00 Fair CLR 69.1 50 51% 30.12 1022.4
01 10:56 E 6 10.00 Fair CLR 66.9 51.1 57% 30.14 1022.9
01 09:56 Calm 10.00 Fair CLR 62.1 52 70% 30.14 1023.1
01 08:56 NE 5 10.00 Fair CLR 59 52 78% 30.13 1022.9
01 07:56 Calm 10.00 Fair CLR 51.1 48.9 51.1 42.1 92% 30.13 1022.7
01 06:56 Calm 10.00 Fair CLR 44.1 43 96% 30.12 1022.5
01 05:56 Calm 3.00 Fog/Mist CLR 43 43 100% 30.1 1022.0
01 04:56 Calm 10.00 A Few Clouds FEW075 44.1 43 96% 30.1 1021.9
01 03:56 Calm 10.00 Mostly Cloudy BKN075 44.1 44.1 100% 30.1 1021.7
01 02:56 Calm 10.00 Fair CLR 44.1 44.1 100% 30.09 1021.5
01 01:56 Calm 10.00 Fair CLR 46 46 62.1 46 100% 30.08 1021.1
01 00:56 Calm 10.00 Fair CLR 46.9 46 97% 30.08 1021.1
31 23:56 Calm 10.00 A Few Clouds FEW050 48 48 100% 30.07 1020.9
31 22:56 Calm 10.00 A Few Clouds FEW070 50 48.9 96% 30.08 1021.1
31 21:56 Calm 10.00 Fair CLR 51.1 50 96% 30.07 1020.9
31 20:56 Calm 10.00 Fair CLR 54 50 87% 30.06 1020.6
31 19:56 NW 5 10.00 Fair CLR 62.1 48.9 72 62.1 62% 30.05 1020.0
31 18:56 NW 7 10.00 Fair CLR 66 50 56% 30.05 1020.0
31 17:56 N 10 10.00 NULL NULL 70 50 49% 30.04 1019.5
31 16:56 N 10 10.00 Fair CLR 70 50 49% 30.02 1019.2
31 15:56 NW 9 G 18 10.00 A Few Clouds FEW050 71.1 50 47% 30.02 1019.1
31 14:56 N 13 G 23 10.00 A Few Clouds FEW048 72 52 50% 30.03 1019.5
31 12:56 NW 8 G 16 10.00 A Few Clouds FEW044 68 50 53% 30.04 1019.7
31 11:56 NW 9 10.00 A Few Clouds FEW036 66.9 51.1 57% 30.05 1020.0
31 10:56 Vrbl 7 10.00 A Few Clouds FEW034 64 50 60% 30.07 1020.6
31 09:56 N 13 10.00 Fair CLR 62.1 50 65% 30.07 1020.8
31 08:56 NW 8 10.00 Fair CLR 57.9 48.9 72% 30.06 1020.5
31 07:56 NW 9 10.00 Fair CLR 55.9 48 55.9 43 75% 30.06 1020.5
Date Time (edt) Wind (mph) Vis. (mi.) Weather Sky Cond. Air Dwpt Max. Min. Relative Humidity Wind Chill (°F) Heat Index (°F) altimeter (in) sea level (mb) 1 hr 3 hr 6 hr
6 hour
Temperature (ºF) Pressure Precipitation (in)